sensor_id;sensor_type;location;lat;lon;timestamp;P1;durP1;ratioP1;P2;durP2;ratioP2
24685;SDS011;12804;51.176;4.452;2023-02-28T00:00:32;9.18;;;5.72;;
24685;SDS011;12804;51.176;4.452;2023-02-28T00:02:58;10.30;;;6.47;;
24685;SDS011;12804;51.176;4.452;2023-02-28T00:05:25;8.38;;;5.97;;
24685;SDS011;12804;51.176;4.452;2023-02-28T00:07:52;9.55;;;6.38;;
24685;SDS011;12804;51.176;4.452;2023-02-28T00:10:23;8.88;;;6.07;;
24685;SDS011;12804;51.176;4.452;2023-02-28T00:12:52;9.40;;;5.88;;
24685;SDS011;12804;51.176;4.452;2023-02-28T00:15:19;11.23;;;6.18;;
24685;SDS011;12804;51.176;4.452;2023-02-28T00:17:46;8.57;;;6.28;;
24685;SDS011;12804;51.176;4.452;2023-02-28T00:20:12;7.93;;;5.97;;
24685;SDS011;12804;51.176;4.452;2023-02-28T00:22:39;10.10;;;6.10;;
24685;SDS011;12804;51.176;4.452;2023-02-28T00:25:10;8.80;;;6.50;;
24685;SDS011;12804;51.176;4.452;2023-02-28T00:27:38;9.52;;;6.20;;
24685;SDS011;12804;51.176;4.452;2023-02-28T00:30:06;10.55;;;6.32;;
24685;SDS011;12804;51.176;4.452;2023-02-28T00:32:36;9.88;;;6.43;;
24685;SDS011;12804;51.176;4.452;2023-02-28T00:35:03;8.95;;;5.97;;
24685;SDS011;12804;51.176;4.452;2023-02-28T00:37:29;9.13;;;6.45;;
24685;SDS011;12804;51.176;4.452;2023-02-28T00:39:55;11.10;;;6.93;;
24685;SDS011;12804;51.176;4.452;2023-02-28T00:42:21;8.48;;;6.28;;
24685;SDS011;12804;51.176;4.452;2023-02-28T00:44:47;9.38;;;6.38;;
24685;SDS011;12804;51.176;4.452;2023-02-28T00:47:13;9.95;;;7.20;;
24685;SDS011;12804;51.176;4.452;2023-02-28T00:49:39;7.80;;;6.55;;
24685;SDS011;12804;51.176;4.452;2023-02-28T00:52:08;7.55;;;6.22;;
24685;SDS011;12804;51.176;4.452;2023-02-28T00:54:34;9.32;;;6.50;;
24685;SDS011;12804;51.176;4.452;2023-02-28T00:57:00;8.20;;;6.35;;
24685;SDS011;12804;51.176;4.452;2023-02-28T00:59:26;9.13;;;6.57;;
24685;SDS011;12804;51.176;4.452;2023-02-28T01:01:52;8.52;;;6.38;;
24685;SDS011;12804;51.176;4.452;2023-02-28T01:04:18;9.07;;;6.50;;
24685;SDS011;12804;51.176;4.452;2023-02-28T01:06:44;11.98;;;7.55;;
24685;SDS011;12804;51.176;4.452;2023-02-28T01:09:10;8.88;;;6.70;;
24685;SDS011;12804;51.176;4.452;2023-02-28T01:11:36;10.15;;;6.60;;
24685;SDS011;12804;51.176;4.452;2023-02-28T01:14:02;7.55;;;6.80;;
24685;SDS011;12804;51.176;4.452;2023-02-28T01:16:29;10.68;;;6.40;;
24685;SDS011;12804;51.176;4.452;2023-02-28T01:18:55;11.05;;;6.88;;
24685;SDS011;12804;51.176;4.452;2023-02-28T01:21:21;8.50;;;6.88;;
24685;SDS011;12804;51.176;4.452;2023-02-28T01:23:47;11.05;;;7.28;;
24685;SDS011;12804;51.176;4.452;2023-02-28T01:26:15;9.10;;;7.32;;
24685;SDS011;12804;51.176;4.452;2023-02-28T01:28:42;8.73;;;6.70;;
24685;SDS011;12804;51.176;4.452;2023-02-28T01:31:09;9.90;;;7.22;;
24685;SDS011;12804;51.176;4.452;2023-02-28T01:33:36;11.80;;;7.07;;
24685;SDS011;12804;51.176;4.452;2023-02-28T01:36:04;9.82;;;6.78;;
24685;SDS011;12804;51.176;4.452;2023-02-28T01:38:35;8.77;;;6.57;;
24685;SDS011;12804;51.176;4.452;2023-02-28T01:41:01;10.63;;;6.80;;
24685;SDS011;12804;51.176;4.452;2023-02-28T01:46:23;10.25;;;7.35;;
24685;SDS011;12804;51.176;4.452;2023-02-28T01:48:56;11.43;;;6.90;;
24685;SDS011;12804;51.176;4.452;2023-02-28T01:51:44;11.30;;;6.85;;
24685;SDS011;12804;51.176;4.452;2023-02-28T01:54:23;11.30;;;7.28;;
24685;SDS011;12804;51.176;4.452;2023-02-28T01:57:00;11.60;;;6.85;;
24685;SDS011;12804;51.176;4.452;2023-02-28T01:59:53;9.05;;;6.93;;
24685;SDS011;12804;51.176;4.452;2023-02-28T02:02:20;10.15;;;7.10;;
24685;SDS011;12804;51.176;4.452;2023-02-28T02:04:50;11.13;;;7.15;;
24685;SDS011;12804;51.176;4.452;2023-02-28T02:07:33;10.77;;;7.05;;
24685;SDS011;12804;51.176;4.452;2023-02-28T02:10:04;10.00;;;6.68;;
24685;SDS011;12804;51.176;4.452;2023-02-28T02:15:16;8.85;;;6.80;;
24685;SDS011;12804;51.176;4.452;2023-02-28T02:17:51;11.38;;;6.78;;
24685;SDS011;12804;51.176;4.452;2023-02-28T02:26:12;9.20;;;7.45;;
24685;SDS011;12804;51.176;4.452;2023-02-28T02:31:33;10.10;;;7.03;;
24685;SDS011;12804;51.176;4.452;2023-02-28T02:37:18;9.45;;;7.00;;
24685;SDS011;12804;51.176;4.452;2023-02-28T02:39:53;9.35;;;6.95;;
24685;SDS011;12804;51.176;4.452;2023-02-28T02:42:27;9.80;;;6.82;;
24685;SDS011;12804;51.176;4.452;2023-02-28T02:45:03;9.65;;;6.88;;
24685;SDS011;12804;51.176;4.452;2023-02-28T02:47:34;10.20;;;6.97;;
24685;SDS011;12804;51.176;4.452;2023-02-28T02:50:03;9.73;;;6.50;;
24685;SDS011;12804;51.176;4.452;2023-02-28T02:52:37;8.45;;;6.82;;
24685;SDS011;12804;51.176;4.452;2023-02-28T02:55:07;8.48;;;6.70;;
24685;SDS011;12804;51.176;4.452;2023-02-28T02:57:46;8.63;;;6.53;;
24685;SDS011;12804;51.176;4.452;2023-02-28T03:00:16;11.10;;;6.90;;
24685;SDS011;12804;51.176;4.452;2023-02-28T03:02:46;10.25;;;6.55;;
24685;SDS011;12804;51.176;4.452;2023-02-28T03:05:23;9.40;;;6.68;;
24685;SDS011;12804;51.176;4.452;2023-02-28T03:08:04;7.95;;;6.80;;
24685;SDS011;12804;51.176;4.452;2023-02-28T03:10:32;9.07;;;6.65;;
24685;SDS011;12804;51.176;4.452;2023-02-28T03:21:43;10.77;;;6.68;;
24685;SDS011;12804;51.176;4.452;2023-02-28T03:27:29;8.02;;;6.55;;
24685;SDS011;12804;51.176;4.452;2023-02-28T03:30:00;10.13;;;7.00;;
24685;SDS011;12804;51.176;4.452;2023-02-28T03:32:33;10.25;;;7.10;;
24685;SDS011;12804;51.176;4.452;2023-02-28T03:35:16;10.27;;;7.13;;
24685;SDS011;12804;51.176;4.452;2023-02-28T03:37:47;10.60;;;7.00;;
24685;SDS011;12804;51.176;4.452;2023-02-28T03:40:34;8.60;;;6.50;;
24685;SDS011;12804;51.176;4.452;2023-02-28T03:43:04;10.93;;;6.95;;
24685;SDS011;12804;51.176;4.452;2023-02-28T03:45:36;10.50;;;6.97;;
24685;SDS011;12804;51.176;4.452;2023-02-28T03:48:38;8.73;;;6.90;;
24685;SDS011;12804;51.176;4.452;2023-02-28T03:51:22;10.80;;;6.38;;
24685;SDS011;12804;51.176;4.452;2023-02-28T03:54:32;11.75;;;7.13;;
24685;SDS011;12804;51.176;4.452;2023-02-28T03:57:03;11.52;;;6.85;;
24685;SDS011;12804;51.176;4.452;2023-02-28T03:59:44;9.52;;;6.40;;
24685;SDS011;12804;51.176;4.452;2023-02-28T04:02:13;8.98;;;6.22;;
24685;SDS011;12804;51.176;4.452;2023-02-28T04:04:39;10.77;;;6.80;;
24685;SDS011;12804;51.176;4.452;2023-02-28T04:07:10;10.20;;;6.63;;
24685;SDS011;12804;51.176;4.452;2023-02-28T04:09:37;8.18;;;6.28;;
24685;SDS011;12804;51.176;4.452;2023-02-28T04:12:04;11.10;;;6.88;;
24685;SDS011;12804;51.176;4.452;2023-02-28T04:14:30;8.77;;;6.57;;
24685;SDS011;12804;51.176;4.452;2023-02-28T04:16:56;10.55;;;7.10;;
24685;SDS011;12804;51.176;4.452;2023-02-28T04:19:22;10.50;;;6.63;;
24685;SDS011;12804;51.176;4.452;2023-02-28T04:21:51;10.15;;;6.15;;
24685;SDS011;12804;51.176;4.452;2023-02-28T04:24:19;8.82;;;6.10;;
24685;SDS011;12804;51.176;4.452;2023-02-28T04:26:51;7.55;;;5.85;;
24685;SDS011;12804;51.176;4.452;2023-02-28T04:29:28;10.97;;;6.77;;
24685;SDS011;12804;51.176;4.452;2023-02-28T04:31:57;8.98;;;6.20;;
24685;SDS011;12804;51.176;4.452;2023-02-28T04:34:24;9.07;;;6.53;;
24685;SDS011;12804;51.176;4.452;2023-02-28T04:36:51;8.52;;;5.90;;
24685;SDS011;12804;51.176;4.452;2023-02-28T04:39:20;8.05;;;6.00;;
24685;SDS011;12804;51.176;4.452;2023-02-28T04:41:46;8.18;;;6.15;;
24685;SDS011;12804;51.176;4.452;2023-02-28T04:44:13;7.78;;;5.95;;
24685;SDS011;12804;51.176;4.452;2023-02-28T04:46:39;8.77;;;6.00;;
24685;SDS011;12804;51.176;4.452;2023-02-28T04:49:05;6.78;;;5.90;;
24685;SDS011;12804;51.176;4.452;2023-02-28T04:51:31;11.07;;;6.18;;
24685;SDS011;12804;51.176;4.452;2023-02-28T04:53:57;10.30;;;5.90;;
24685;SDS011;12804;51.176;4.452;2023-02-28T04:56:23;6.97;;;6.00;;
24685;SDS011;12804;51.176;4.452;2023-02-28T04:58:49;8.73;;;6.35;;
24685;SDS011;12804;51.176;4.452;2023-02-28T05:03:44;8.23;;;5.85;;
24685;SDS011;12804;51.176;4.452;2023-02-28T05:06:11;9.70;;;5.88;;
24685;SDS011;12804;51.176;4.452;2023-02-28T05:08:37;7.65;;;5.72;;
24685;SDS011;12804;51.176;4.452;2023-02-28T05:11:05;8.70;;;6.35;;
24685;SDS011;12804;51.176;4.452;2023-02-28T05:13:37;10.68;;;5.93;;
24685;SDS011;12804;51.176;4.452;2023-02-28T05:16:02;10.52;;;6.07;;
24685;SDS011;12804;51.176;4.452;2023-02-28T05:18:28;9.02;;;5.80;;
24685;SDS011;12804;51.176;4.452;2023-02-28T05:20:54;8.70;;;5.55;;
24685;SDS011;12804;51.176;4.452;2023-02-28T05:23:20;7.78;;;5.75;;
24685;SDS011;12804;51.176;4.452;2023-02-28T05:25:47;7.10;;;6.20;;
24685;SDS011;12804;51.176;4.452;2023-02-28T05:28:13;8.60;;;5.90;;
24685;SDS011;12804;51.176;4.452;2023-02-28T05:30:39;7.45;;;6.07;;
24685;SDS011;12804;51.176;4.452;2023-02-28T05:33:05;8.57;;;6.10;;
24685;SDS011;12804;51.176;4.452;2023-02-28T05:35:31;7.60;;;5.82;;
24685;SDS011;12804;51.176;4.452;2023-02-28T05:37:57;7.68;;;5.45;;
24685;SDS011;12804;51.176;4.452;2023-02-28T05:40:23;7.63;;;5.88;;
24685;SDS011;12804;51.176;4.452;2023-02-28T05:42:49;9.25;;;5.63;;
24685;SDS011;12804;51.176;4.452;2023-02-28T05:45:16;8.40;;;6.05;;
24685;SDS011;12804;51.176;4.452;2023-02-28T05:47:42;7.35;;;5.65;;
24685;SDS011;12804;51.176;4.452;2023-02-28T05:50:08;10.07;;;6.18;;
24685;SDS011;12804;51.176;4.452;2023-02-28T05:52:35;8.52;;;5.85;;
24685;SDS011;12804;51.176;4.452;2023-02-28T05:55:02;9.35;;;5.65;;
24685;SDS011;12804;51.176;4.452;2023-02-28T05:57:29;7.22;;;5.13;;
24685;SDS011;12804;51.176;4.452;2023-02-28T05:59:55;9.43;;;5.63;;
24685;SDS011;12804;51.176;4.452;2023-02-28T06:02:21;9.90;;;5.85;;
24685;SDS011;12804;51.176;4.452;2023-02-28T06:04:47;7.32;;;5.22;;
24685;SDS011;12804;51.176;4.452;2023-02-28T06:07:12;6.50;;;5.53;;
24685;SDS011;12804;51.176;4.452;2023-02-28T06:09:39;6.53;;;5.72;;
24685;SDS011;12804;51.176;4.452;2023-02-28T06:12:06;9.68;;;5.57;;
24685;SDS011;12804;51.176;4.452;2023-02-28T06:14:33;6.90;;;5.40;;
24685;SDS011;12804;51.176;4.452;2023-02-28T06:16:59;8.25;;;5.57;;
24685;SDS011;12804;51.176;4.452;2023-02-28T06:19:26;6.63;;;5.50;;
24685;SDS011;12804;51.176;4.452;2023-02-28T06:21:52;8.98;;;5.88;;
24685;SDS011;12804;51.176;4.452;2023-02-28T06:24:19;5.45;;;4.95;;
24685;SDS011;12804;51.176;4.452;2023-02-28T06:26:46;8.25;;;5.90;;
24685;SDS011;12804;51.176;4.452;2023-02-28T06:29:12;9.00;;;5.82;;
24685;SDS011;12804;51.176;4.452;2023-02-28T06:31:42;9.07;;;5.70;;
24685;SDS011;12804;51.176;4.452;2023-02-28T06:34:12;8.27;;;5.63;;
24685;SDS011;12804;51.176;4.452;2023-02-28T06:36:39;7.75;;;5.55;;
24685;SDS011;12804;51.176;4.452;2023-02-28T06:39:06;7.90;;;5.68;;
24685;SDS011;12804;51.176;4.452;2023-02-28T06:41:32;9.00;;;5.68;;
24685;SDS011;12804;51.176;4.452;2023-02-28T06:44:03;9.38;;;5.53;;
24685;SDS011;12804;51.176;4.452;2023-02-28T06:46:31;8.82;;;5.30;;
24685;SDS011;12804;51.176;4.452;2023-02-28T06:48:57;10.70;;;5.65;;
24685;SDS011;12804;51.176;4.452;2023-02-28T06:51:23;6.47;;;5.78;;
24685;SDS011;12804;51.176;4.452;2023-02-28T06:53:49;10.02;;;5.95;;
24685;SDS011;12804;51.176;4.452;2023-02-28T06:56:16;11.27;;;6.18;;
24685;SDS011;12804;51.176;4.452;2023-02-28T06:58:45;6.88;;;5.40;;
24685;SDS011;12804;51.176;4.452;2023-02-28T07:01:13;8.00;;;5.68;;
24685;SDS011;12804;51.176;4.452;2023-02-28T07:03:40;8.23;;;5.40;;
24685;SDS011;12804;51.176;4.452;2023-02-28T07:06:06;8.20;;;5.60;;
24685;SDS011;12804;51.176;4.452;2023-02-28T07:08:32;8.88;;;5.57;;
24685;SDS011;12804;51.176;4.452;2023-02-28T07:10:58;9.70;;;5.28;;
24685;SDS011;12804;51.176;4.452;2023-02-28T07:13:24;8.35;;;5.82;;
24685;SDS011;12804;51.176;4.452;2023-02-28T07:15:54;8.65;;;5.57;;
24685;SDS011;12804;51.176;4.452;2023-02-28T07:18:20;8.13;;;5.10;;
24685;SDS011;12804;51.176;4.452;2023-02-28T07:20:46;8.77;;;5.35;;
24685;SDS011;12804;51.176;4.452;2023-02-28T07:23:12;9.70;;;5.35;;
24685;SDS011;12804;51.176;4.452;2023-02-28T07:25:38;6.93;;;4.78;;
24685;SDS011;12804;51.176;4.452;2023-02-28T07:28:04;9.75;;;5.32;;
24685;SDS011;12804;51.176;4.452;2023-02-28T07:30:30;6.65;;;5.20;;
24685;SDS011;12804;51.176;4.452;2023-02-28T07:32:56;6.20;;;4.80;;
24685;SDS011;12804;51.176;4.452;2023-02-28T07:35:22;6.40;;;5.22;;
24685;SDS011;12804;51.176;4.452;2023-02-28T07:37:48;6.45;;;4.70;;
24685;SDS011;12804;51.176;4.452;2023-02-28T07:40:14;8.68;;;5.78;;
24685;SDS011;12804;51.176;4.452;2023-02-28T07:42:40;8.07;;;5.20;;
24685;SDS011;12804;51.176;4.452;2023-02-28T07:45:08;9.43;;;5.05;;
24685;SDS011;12804;51.176;4.452;2023-02-28T07:47:39;10.73;;;5.45;;
24685;SDS011;12804;51.176;4.452;2023-02-28T07:50:07;6.70;;;4.70;;
24685;SDS011;12804;51.176;4.452;2023-02-28T07:52:35;10.07;;;4.90;;
24685;SDS011;12804;51.176;4.452;2023-02-28T07:55:02;5.90;;;4.38;;
24685;SDS011;12804;51.176;4.452;2023-02-28T07:57:29;6.07;;;4.45;;
24685;SDS011;12804;51.176;4.452;2023-02-28T07:59:55;6.32;;;4.55;;
24685;SDS011;12804;51.176;4.452;2023-02-28T08:02:21;5.65;;;4.28;;
24685;SDS011;12804;51.176;4.452;2023-02-28T08:04:47;6.75;;;4.35;;
24685;SDS011;12804;51.176;4.452;2023-02-28T08:07:13;5.90;;;4.20;;
24685;SDS011;12804;51.176;4.452;2023-02-28T08:09:40;8.07;;;4.32;;
24685;SDS011;12804;51.176;4.452;2023-02-28T08:12:06;6.78;;;4.00;;
24685;SDS011;12804;51.176;4.452;2023-02-28T08:14:33;5.70;;;4.50;;
24685;SDS011;12804;51.176;4.452;2023-02-28T08:16:59;6.35;;;4.40;;
24685;SDS011;12804;51.176;4.452;2023-02-28T08:19:25;6.05;;;4.05;;
24685;SDS011;12804;51.176;4.452;2023-02-28T08:21:51;6.43;;;4.10;;
24685;SDS011;12804;51.176;4.452;2023-02-28T08:24:17;5.40;;;3.97;;
24685;SDS011;12804;51.176;4.452;2023-02-28T08:26:43;7.15;;;4.25;;
24685;SDS011;12804;51.176;4.452;2023-02-28T08:29:09;7.20;;;3.95;;
24685;SDS011;12804;51.176;4.452;2023-02-28T08:31:35;4.55;;;3.42;;
24685;SDS011;12804;51.176;4.452;2023-02-28T08:34:07;4.78;;;3.80;;
24685;SDS011;12804;51.176;4.452;2023-02-28T08:36:35;7.32;;;3.83;;
24685;SDS011;12804;51.176;4.452;2023-02-28T08:39:01;6.38;;;3.40;;
24685;SDS011;12804;51.176;4.452;2023-02-28T08:41:27;5.38;;;3.97;;
24685;SDS011;12804;51.176;4.452;2023-02-28T08:43:53;5.53;;;3.50;;
24685;SDS011;12804;51.176;4.452;2023-02-28T08:46:20;12.13;;;4.20;;
24685;SDS011;12804;51.176;4.452;2023-02-28T08:48:46;5.07;;;3.45;;
24685;SDS011;12804;51.176;4.452;2023-02-28T08:51:16;8.98;;;3.72;;
24685;SDS011;12804;51.176;4.452;2023-02-28T08:53:51;4.05;;;3.33;;
24685;SDS011;12804;51.176;4.452;2023-02-28T08:56:18;5.15;;;3.45;;
24685;SDS011;12804;51.176;4.452;2023-02-28T08:58:45;5.85;;;3.00;;
24685;SDS011;12804;51.176;4.452;2023-02-28T09:01:13;4.70;;;2.75;;
24685;SDS011;12804;51.176;4.452;2023-02-28T09:03:46;4.32;;;2.92;;
24685;SDS011;12804;51.176;4.452;2023-02-28T09:06:14;3.60;;;2.70;;
24685;SDS011;12804;51.176;4.452;2023-02-28T09:08:42;7.20;;;3.03;;
24685;SDS011;12804;51.176;4.452;2023-02-28T09:11:08;4.07;;;2.90;;
24685;SDS011;12804;51.176;4.452;2023-02-28T09:13:34;3.15;;;2.03;;
24685;SDS011;12804;51.176;4.452;2023-02-28T09:16:04;4.25;;;2.80;;
24685;SDS011;12804;51.176;4.452;2023-02-28T09:18:31;4.30;;;2.70;;
24685;SDS011;12804;51.176;4.452;2023-02-28T09:20:58;4.75;;;2.60;;
24685;SDS011;12804;51.176;4.452;2023-02-28T09:23:24;4.75;;;2.55;;
24685;SDS011;12804;51.176;4.452;2023-02-28T09:25:51;4.32;;;2.50;;
24685;SDS011;12804;51.176;4.452;2023-02-28T09:28:18;3.75;;;2.75;;
24685;SDS011;12804;51.176;4.452;2023-02-28T09:30:46;5.05;;;2.95;;
24685;SDS011;12804;51.176;4.452;2023-02-28T09:33:14;4.18;;;2.45;;
24685;SDS011;12804;51.176;4.452;2023-02-28T09:35:40;3.55;;;2.70;;
24685;SDS011;12804;51.176;4.452;2023-02-28T09:38:08;4.30;;;2.70;;
24685;SDS011;12804;51.176;4.452;2023-02-28T09:40:39;4.05;;;2.38;;
24685;SDS011;12804;51.176;4.452;2023-02-28T09:43:14;5.75;;;2.50;;
24685;SDS011;12804;51.176;4.452;2023-02-28T09:45:43;2.10;;;1.75;;
24685;SDS011;12804;51.176;4.452;2023-02-28T09:48:37;3.58;;;1.85;;
24685;SDS011;12804;51.176;4.452;2023-02-28T09:53:51;2.17;;;1.45;;
24685;SDS011;12804;51.176;4.452;2023-02-28T09:56:20;2.55;;;1.50;;
24685;SDS011;12804;51.176;4.452;2023-02-28T10:01:30;2.30;;;1.67;;
24685;SDS011;12804;51.176;4.452;2023-02-28T10:04:24;4.75;;;1.60;;
24685;SDS011;12804;51.176;4.452;2023-02-28T10:10:42;2.67;;;1.40;;
24685;SDS011;12804;51.176;4.452;2023-02-28T10:13:04;3.38;;;1.30;;
24685;SDS011;12804;51.176;4.452;2023-02-28T10:15:51;2.58;;;1.23;;
24685;SDS011;12804;51.176;4.452;2023-02-28T10:18:25;2.67;;;1.17;;
24685;SDS011;12804;51.176;4.452;2023-02-28T10:20:55;1.98;;;1.40;;
24685;SDS011;12804;51.176;4.452;2023-02-28T10:23:28;1.40;;;1.27;;
24685;SDS011;12804;51.176;4.452;2023-02-28T10:26:01;2.63;;;1.33;;
24685;SDS011;12804;51.176;4.452;2023-02-28T10:28:36;1.35;;;1.20;;
24685;SDS011;12804;51.176;4.452;2023-02-28T10:31:02;3.55;;;1.40;;
24685;SDS011;12804;51.176;4.452;2023-02-28T10:33:29;1.50;;;1.35;;
24685;SDS011;12804;51.176;4.452;2023-02-28T10:35:57;2.45;;;1.40;;
24685;SDS011;12804;51.176;4.452;2023-02-28T10:38:24;3.50;;;1.58;;
24685;SDS011;12804;51.176;4.452;2023-02-28T10:41:08;2.20;;;1.08;;
24685;SDS011;12804;51.176;4.452;2023-02-28T10:43:36;2.42;;;1.20;;
24685;SDS011;12804;51.176;4.452;2023-02-28T10:46:09;1.58;;;1.38;;
24685;SDS011;12804;51.176;4.452;2023-02-28T10:48:41;3.92;;;1.10;;
24685;SDS011;12804;51.176;4.452;2023-02-28T10:51:13;2.38;;;1.10;;
24685;SDS011;12804;51.176;4.452;2023-02-28T10:53:50;1.98;;;1.20;;
24685;SDS011;12804;51.176;4.452;2023-02-28T10:56:19;1.35;;;1.20;;
24685;SDS011;12804;51.176;4.452;2023-02-28T10:59:34;3.17;;;1.30;;
24685;SDS011;12804;51.176;4.452;2023-02-28T11:01:55;2.40;;;1.10;;
24685;SDS011;12804;51.176;4.452;2023-02-28T11:07:16;1.52;;;1.30;;
24685;SDS011;12804;51.176;4.452;2023-02-28T11:09:51;1.20;;;1.10;;
24685;SDS011;12804;51.176;4.452;2023-02-28T11:12:23;1.48;;;1.10;;
24685;SDS011;12804;51.176;4.452;2023-02-28T11:14:58;1.83;;;1.02;;
24685;SDS011;12804;51.176;4.452;2023-02-28T11:17:28;2.10;;;1.20;;
24685;SDS011;12804;51.176;4.452;2023-02-28T11:19:57;1.42;;;1.15;;
24685;SDS011;12804;51.176;4.452;2023-02-28T11:22:29;2.03;;;1.23;;
24685;SDS011;12804;51.176;4.452;2023-02-28T11:25:31;1.92;;;1.08;;
24685;SDS011;12804;51.176;4.452;2023-02-28T11:30:35;1.30;;;1.20;;
24685;SDS011;12804;51.176;4.452;2023-02-28T11:35:57;1.02;;;0.93;;
24685;SDS011;12804;51.176;4.452;2023-02-28T11:38:29;2.25;;;1.20;;
24685;SDS011;12804;51.176;4.452;2023-02-28T11:43:43;1.38;;;1.25;;
24685;SDS011;12804;51.176;4.452;2023-02-28T11:52:05;1.55;;;1.17;;
24685;SDS011;12804;51.176;4.452;2023-02-28T12:02:54;3.00;;;1.30;;
24685;SDS011;12804;51.176;4.452;2023-02-28T12:05:54;1.85;;;1.40;;
24685;SDS011;12804;51.176;4.452;2023-02-28T12:11:48;2.33;;;1.10;;
24685;SDS011;12804;51.176;4.452;2023-02-28T12:16:56;2.05;;;1.40;;
24685;SDS011;12804;51.176;4.452;2023-02-28T12:19:39;1.58;;;1.30;;
24685;SDS011;12804;51.176;4.452;2023-02-28T12:22:27;1.95;;;1.15;;
24685;SDS011;12804;51.176;4.452;2023-02-28T12:27:47;1.35;;;1.25;;
24685;SDS011;12804;51.176;4.452;2023-02-28T12:30:21;3.72;;;1.10;;
24685;SDS011;12804;51.176;4.452;2023-02-28T12:33:12;1.92;;;1.55;;
24685;SDS011;12804;51.176;4.452;2023-02-28T12:35:48;2.17;;;1.50;;
24685;SDS011;12804;51.176;4.452;2023-02-28T12:40:55;2.67;;;1.80;;
24685;SDS011;12804;51.176;4.452;2023-02-28T12:43:27;2.63;;;1.60;;
24685;SDS011;12804;51.176;4.452;2023-02-28T12:46:10;3.58;;;1.55;;
24685;SDS011;12804;51.176;4.452;2023-02-28T12:49:00;1.98;;;1.52;;
24685;SDS011;12804;51.176;4.452;2023-02-28T12:54:04;2.35;;;1.30;;
24685;SDS011;12804;51.176;4.452;2023-02-28T12:56:58;1.52;;;1.40;;
24685;SDS011;12804;51.176;4.452;2023-02-28T13:04:53;3.08;;;1.77;;
24685;SDS011;12804;51.176;4.452;2023-02-28T13:09:53;3.05;;;2.00;;
24685;SDS011;12804;51.176;4.452;2023-02-28T13:12:21;1.85;;;1.70;;
24685;SDS011;12804;51.176;4.452;2023-02-28T13:14:48;3.38;;;1.90;;
24685;SDS011;12804;51.176;4.452;2023-02-28T13:17:21;2.22;;;1.40;;
24685;SDS011;12804;51.176;4.452;2023-02-28T13:24:55;2.13;;;1.55;;
24685;SDS011;12804;51.176;4.452;2023-02-28T13:27:23;3.53;;;1.70;;
24685;SDS011;12804;51.176;4.452;2023-02-28T13:29:57;2.13;;;1.90;;
24685;SDS011;12804;51.176;4.452;2023-02-28T13:39:48;3.70;;;1.90;;
24685;SDS011;12804;51.176;4.452;2023-02-28T13:47:29;2.42;;;1.80;;
24685;SDS011;12804;51.176;4.452;2023-02-28T13:55:31;2.90;;;2.03;;
24685;SDS011;12804;51.176;4.452;2023-02-28T14:01:07;2.10;;;1.80;;
24685;SDS011;12804;51.176;4.452;2023-02-28T14:06:32;3.35;;;1.73;;
24685;SDS011;12804;51.176;4.452;2023-02-28T14:11:44;2.53;;;1.90;;
24685;SDS011;12804;51.176;4.452;2023-02-28T14:17:05;3.38;;;2.03;;
24685;SDS011;12804;51.176;4.452;2023-02-28T14:19:45;2.65;;;2.05;;
24685;SDS011;12804;51.176;4.452;2023-02-28T14:25:08;4.00;;;1.60;;
24685;SDS011;12804;51.176;4.452;2023-02-28T14:27:57;2.97;;;2.30;;
24685;SDS011;12804;51.176;4.452;2023-02-28T14:30:48;4.47;;;2.20;;
24685;SDS011;12804;51.176;4.452;2023-02-28T14:33:19;1.88;;;1.75;;
24685;SDS011;12804;51.176;4.452;2023-02-28T14:36:06;3.95;;;1.90;;
24685;SDS011;12804;51.176;4.452;2023-02-28T14:41:29;5.32;;;1.98;;
24685;SDS011;12804;51.176;4.452;2023-02-28T14:43:58;5.82;;;2.05;;
24685;SDS011;12804;51.176;4.452;2023-02-28T14:46:38;3.40;;;1.90;;
24685;SDS011;12804;51.176;4.452;2023-02-28T14:49:06;1.98;;;1.85;;
24685;SDS011;12804;51.176;4.452;2023-02-28T14:51:37;2.30;;;2.08;;
24685;SDS011;12804;51.176;4.452;2023-02-28T14:54:03;2.58;;;1.70;;
24685;SDS011;12804;51.176;4.452;2023-02-28T14:56:34;1.98;;;1.77;;
24685;SDS011;12804;51.176;4.452;2023-02-28T14:59:02;2.30;;;1.80;;
24685;SDS011;12804;51.176;4.452;2023-02-28T15:01:29;4.57;;;2.20;;
24685;SDS011;12804;51.176;4.452;2023-02-28T15:03:57;2.90;;;2.10;;
24685;SDS011;12804;51.176;4.452;2023-02-28T15:06:26;2.60;;;2.20;;
24685;SDS011;12804;51.176;4.452;2023-02-28T15:09:14;9.20;;;2.60;;
24685;SDS011;12804;51.176;4.452;2023-02-28T15:11:41;4.47;;;2.40;;
24685;SDS011;12804;51.176;4.452;2023-02-28T15:14:19;2.85;;;2.20;;
24685;SDS011;12804;51.176;4.452;2023-02-28T15:16:52;2.28;;;2.08;;
24685;SDS011;12804;51.176;4.452;2023-02-28T15:19:35;2.63;;;2.42;;
24685;SDS011;12804;51.176;4.452;2023-02-28T15:22:06;2.97;;;2.33;;
24685;SDS011;12804;51.176;4.452;2023-02-28T15:24:39;2.47;;;2.28;;
24685;SDS011;12804;51.176;4.452;2023-02-28T15:27:16;3.13;;;2.33;;
24685;SDS011;12804;51.176;4.452;2023-02-28T15:30:17;2.67;;;2.20;;
24685;SDS011;12804;51.176;4.452;2023-02-28T15:32:45;2.70;;;2.50;;
24685;SDS011;12804;51.176;4.452;2023-02-28T15:35:29;2.55;;;2.35;;
24685;SDS011;12804;51.176;4.452;2023-02-28T15:37:57;3.30;;;2.50;;
24685;SDS011;12804;51.176;4.452;2023-02-28T15:40:49;4.30;;;2.25;;
24685;SDS011;12804;51.176;4.452;2023-02-28T15:43:25;5.53;;;2.30;;
24685;SDS011;12804;51.176;4.452;2023-02-28T15:45:59;4.63;;;2.42;;
24685;SDS011;12804;51.176;4.452;2023-02-28T15:48:29;4.82;;;2.63;;
24685;SDS011;12804;51.176;4.452;2023-02-28T15:51:02;4.00;;;2.40;;
24685;SDS011;12804;51.176;4.452;2023-02-28T15:53:30;3.95;;;2.75;;
24685;SDS011;12804;51.176;4.452;2023-02-28T15:56:02;6.00;;;1.80;;
24685;SDS011;12804;51.176;4.452;2023-02-28T15:58:29;3.80;;;2.25;;
24685;SDS011;12804;51.176;4.452;2023-02-28T16:03:55;2.30;;;2.08;;
24685;SDS011;12804;51.176;4.452;2023-02-28T16:08:49;2.65;;;1.98;;
24685;SDS011;12804;51.176;4.452;2023-02-28T16:11:16;4.13;;;2.50;;
24685;SDS011;12804;51.176;4.452;2023-02-28T16:13:42;3.55;;;2.50;;
24685;SDS011;12804;51.176;4.452;2023-02-28T16:16:08;3.47;;;2.28;;
24685;SDS011;12804;51.176;4.452;2023-02-28T16:18:44;4.97;;;2.22;;
24685;SDS011;12804;51.176;4.452;2023-02-28T16:21:10;3.50;;;2.40;;
24685;SDS011;12804;51.176;4.452;2023-02-28T16:23:36;2.40;;;2.20;;
24685;SDS011;12804;51.176;4.452;2023-02-28T16:26:03;3.25;;;2.13;;
24685;SDS011;12804;51.176;4.452;2023-02-28T16:28:38;2.90;;;2.60;;
24685;SDS011;12804;51.176;4.452;2023-02-28T16:31:05;2.50;;;2.17;;
24685;SDS011;12804;51.176;4.452;2023-02-28T16:33:32;4.55;;;2.60;;
24685;SDS011;12804;51.176;4.452;2023-02-28T16:35:59;2.92;;;2.13;;
24685;SDS011;12804;51.176;4.452;2023-02-28T16:38:25;3.42;;;2.42;;
24685;SDS011;12804;51.176;4.452;2023-02-28T16:40:52;2.58;;;2.38;;
24685;SDS011;12804;51.176;4.452;2023-02-28T16:43:22;2.67;;;2.45;;
24685;SDS011;12804;51.176;4.452;2023-02-28T16:45:54;4.68;;;2.58;;
24685;SDS011;12804;51.176;4.452;2023-02-28T16:48:23;6.07;;;2.67;;
24685;SDS011;12804;51.176;4.452;2023-02-28T16:50:50;3.80;;;2.58;;
24685;SDS011;12804;51.176;4.452;2023-02-28T16:53:16;3.33;;;2.60;;
24685;SDS011;12804;51.176;4.452;2023-02-28T16:55:42;3.58;;;2.70;;
24685;SDS011;12804;51.176;4.452;2023-02-28T16:58:10;2.60;;;2.40;;
24685;SDS011;12804;51.176;4.452;2023-02-28T17:00:42;4.45;;;3.03;;
24685;SDS011;12804;51.176;4.452;2023-02-28T17:03:17;6.22;;;4.13;;
24685;SDS011;12804;51.176;4.452;2023-02-28T17:05:50;3.80;;;3.40;;
24685;SDS011;12804;51.176;4.452;2023-02-28T17:08:16;4.60;;;3.60;;
24685;SDS011;12804;51.176;4.452;2023-02-28T17:10:42;4.68;;;3.55;;
24685;SDS011;12804;51.176;4.452;2023-02-28T17:13:08;5.38;;;3.25;;
24685;SDS011;12804;51.176;4.452;2023-02-28T17:15:34;3.55;;;3.15;;
24685;SDS011;12804;51.176;4.452;2023-02-28T17:18:01;4.18;;;2.88;;